Time;durP1;ratioP1;P1;durP2;ratioP2;P2;SDS_P1;SDS_P2;PMS_P1;PMS_P2;Temp;Humidity;BMP_temperature;BMP_pressure;BME280_temperature;BME280_humidity;BME280_pressure;Samples;Min_cycle;Max_cycle;Signal;HPM_P1;HPM_P2
2021/11/29 00:01:09;;;;;;;12.63;11.30;;;4.30;99.90;;;;;;4977115;28;20169;-64
2021/11/29 00:03:35;;;;;;;12.60;10.70;;;4.20;99.90;;;;;;4977186;28;20157;-64
2021/11/29 00:06:01;;;;;;;12.90;11.27;;;4.10;99.90;;;;;;4976476;28;20416;-64
2021/11/29 00:08:27;;;;;;;11.37;10.00;;;4.10;99.90;;;;;;4976442;28;20227;-64
2021/11/29 00:10:53;;;;;;;10.73;9.73;;;4.20;99.90;;;;;;4976671;28;20405;-64
2021/11/29 00:13:19;;;;;;;14.33;11.83;;;4.30;99.90;;;;;;4976773;28;20173;-64
2021/11/29 00:15:45;;;;;;;11.17;9.97;;;4.30;99.90;;;;;;4976528;28;20252;-64
2021/11/29 00:18:11;;;;;;;11.53;10.03;;;4.40;99.90;;;;;;4976643;28;20532;-64
2021/11/29 00:20:37;;;;;;;12.60;11.23;;;4.40;99.90;;;;;;4976222;28;20473;-64
2021/11/29 00:23:03;;;;;;;9.90;8.90;;;4.50;99.90;;;;;;4976599;28;20561;-64
2021/11/29 00:25:29;;;;;;;12.20;10.90;;;4.50;99.90;;;;;;4976368;28;20173;-64
2021/11/29 00:27:54;;;;;;;15.30;12.93;;;4.60;99.90;;;;;;4975553;28;20169;-64
2021/11/29 00:30:21;;;;;;;13.40;11.37;;;4.50;99.90;;;;;;4975692;28;20785;-66
2021/11/29 00:32:47;;;;;;;13.27;11.83;;;4.50;99.90;;;;;;4975696;28;20173;-64
2021/11/29 00:35:12;;;;;;;14.60;13.10;;;4.60;99.90;;;;;;4976016;28;20408;-64
2021/11/29 00:37:38;;;;;;;15.67;13.97;;;4.60;99.90;;;;;;4975858;28;20181;-64
2021/11/29 00:40:08;;;;;;;16.47;13.73;;;4.40;99.90;;;;;;4975992;28;20189;-64
2021/11/29 00:42:33;;;;;;;16.33;14.07;;;4.30;99.90;;;;;;4975454;28;20527;-64
2021/11/29 00:44:59;;;;;;;19.37;16.17;;;4.30;99.90;;;;;;4975950;28;20895;-64
2021/11/29 00:47:25;;;;;;;17.93;14.80;;;4.30;99.90;;;;;;4975795;28;20172;-64
2021/11/29 00:49:50;;;;;;;21.07;17.83;;;4.40;99.90;;;;;;4976051;28;20236;-64
2021/11/29 00:52:16;;;;;;;19.40;15.50;;;4.20;99.90;;;;;;4975448;28;20590;-62
2021/11/29 00:54:41;;;;;;;17.13;14.93;;;4.10;99.90;;;;;;4975633;28;20260;-64
2021/11/29 00:57:07;;;;;;;18.13;15.10;;;4.30;99.90;;;;;;4974323;28;20169;-63
2021/11/29 00:59:33;;;;;;;16.83;15.10;;;4.30;99.90;;;;;;4975589;28;20194;-64
2021/11/29 01:01:59;;;;;;;17.70;14.93;;;4.30;99.90;;;;;;4975254;28;20198;-64
2021/11/29 01:04:24;;;;;;;21.90;17.93;;;4.30;99.90;;;;;;4975508;28;20216;-62
2021/11/29 01:06:50;;;;;;;19.30;16.33;;;4.20;99.90;;;;;;4975505;28;20169;-64
2021/11/29 01:09:16;;;;;;;18.97;15.93;;;4.10;99.90;;;;;;4975321;28;20208;-64
2021/11/29 01:11:42;;;;;;;19.10;15.27;;;4.10;99.90;;;;;;4974899;28;20169;-64
2021/11/29 01:14:07;;;;;;;19.30;16.63;;;4.00;99.90;;;;;;4975321;28;20405;-64
2021/11/29 01:16:33;;;;;;;21.83;18.13;;;4.20;99.90;;;;;;4974064;28;20320;-64
2021/11/29 01:18:58;;;;;;;21.30;17.40;;;4.10;99.90;;;;;;4975207;28;20200;-64
2021/11/29 01:21:24;;;;;;;16.80;15.00;;;4.20;99.90;;;;;;4975546;28;20197;-64
2021/11/29 01:23:52;;;;;;;18.73;15.00;;;4.20;99.90;;;;;;4975004;28;20166;-64
2021/11/29 01:26:18;;;;;;;21.07;18.33;;;4.10;99.90;;;;;;4975362;28;20172;-64
2021/11/29 01:28:43;;;;;;;20.37;17.63;;;4.10;99.90;;;;;;4974967;28;20417;-65
2021/11/29 01:31:09;;;;;;;21.47;16.30;;;4.10;99.90;;;;;;4974990;28;20169;-64
2021/11/29 01:33:35;;;;;;;22.73;18.67;;;4.10;99.90;;;;;;4975071;28;20245;-64
2021/11/29 01:36:01;;;;;;;21.53;17.40;;;4.30;99.90;;;;;;4975159;28;20417;-62
2021/11/29 01:38:26;;;;;;;20.60;17.57;;;4.20;99.90;;;;;;4975151;28;20954;-64
2021/11/29 01:40:53;;;;;;;19.60;17.43;;;4.30;99.90;;;;;;4973995;28;20177;-64
2021/11/29 01:43:19;;;;;;;22.40;17.03;;;4.20;99.90;;;;;;4974741;28;20204;-64
2021/11/29 01:45:48;;;;;;;20.77;16.47;;;4.10;99.90;;;;;;4975071;28;20405;-64
2021/11/29 01:48:15;;;;;;;25.20;19.53;;;4.20;99.90;;;;;;4975399;28;20420;-63
2021/11/29 01:50:44;;;;;;;26.00;20.33;;;4.20;99.90;;;;;;4975361;28;20401;-64
2021/11/29 01:53:10;;;;;;;22.43;17.97;;;4.20;99.90;;;;;;4975129;28;20944;-64
2021/11/29 01:55:39;;;;;;;27.47;20.77;;;4.20;99.90;;;;;;4977887;28;20400;-64
2021/11/29 01:58:05;;;;;;;24.27;20.40;;;4.10;99.90;;;;;;4977420;28;20455;-63
2021/11/29 02:00:34;;;;;;;25.60;20.50;;;4.20;99.90;;;;;;4978914;28;20413;-64
2021/11/29 02:03:00;;;;;;;23.77;19.00;;;4.20;99.90;;;;;;4978889;28;20444;-63
2021/11/29 02:05:26;;;;;;;25.63;20.70;;;4.20;99.90;;;;;;4979003;28;20844;-63
2021/11/29 02:07:52;;;;;;;22.63;19.30;;;4.10;99.90;;;;;;4978167;28;20500;-63
2021/11/29 02:10:21;;;;;;;22.30;18.93;;;4.30;99.90;;;;;;5017120;23;20503;-62
2021/11/29 02:12:47;;;;;;;25.90;20.20;;;4.10;99.90;;;;;;4996403;28;20419;-61
2021/11/29 02:15:14;;;;;;;26.63;20.33;;;4.00;99.90;;;;;;4999580;28;20399;-60
2021/11/29 02:17:41;;;;;;;26.00;20.63;;;4.10;99.90;;;;;;5017108;28;20429;-60
2021/11/29 02:20:08;;;;;;;27.43;20.93;;;4.20;99.90;;;;;;4999409;28;20414;-61
2021/11/29 02:22:34;;;;;;;22.30;18.20;;;4.30;99.90;;;;;;4998859;28;20451;-61
2021/11/29 02:25:00;;;;;;;27.53;20.13;;;4.30;99.90;;;;;;4998798;28;20394;-61
2021/11/29 02:27:26;;;;;;;27.77;21.00;;;4.20;99.90;;;;;;5016721;28;20405;-62
2021/11/29 02:29:55;;;;;;;22.70;18.57;;;4.10;99.90;;;;;;5016926;28;20649;-62
2021/11/29 02:32:21;;;;;;;26.07;20.87;;;4.00;99.90;;;;;;5016977;28;20160;-60
2021/11/29 02:34:48;;;;;;;28.00;21.77;;;3.90;99.90;;;;;;5016173;28;20415;-61
2021/11/29 02:37:14;;;;;;;27.10;20.80;;;4.00;99.90;;;;;;5016941;28;20407;-63
2021/11/29 02:39:41;;;;;;;27.20;21.50;;;4.00;99.90;;;;;;5016006;28;20430;-62
2021/11/29 02:42:10;;;;;;;26.47;22.03;;;3.90;99.90;;;;;;5016526;28;20519;-60
2021/11/29 02:44:36;;;;;;;25.10;20.50;;;3.90;99.90;;;;;;5016617;28;20842;-61
2021/11/29 02:47:03;;;;;;;25.47;20.97;;;3.80;99.90;;;;;;5015029;28;20427;-58
2021/11/29 02:49:28;;;;;;;27.70;22.80;;;3.80;99.90;;;;;;4997891;28;20224;-61
2021/11/29 02:52:01;;;;;;;27.13;22.27;;;4.00;99.90;;;;;;4998845;28;20821;-60
2021/11/29 02:54:32;;;;;;;26.20;21.57;;;4.10;99.90;;;;;;5016049;28;20206;-62
2021/11/29 02:57:04;;;;;;;31.20;24.03;;;4.10;99.90;;;;;;5016463;28;20387;-62
2021/11/29 02:59:32;;;;;;;28.40;23.30;;;4.00;99.90;;;;;;5016561;28;20425;-61
2021/11/29 03:02:01;;;;;;;27.13;22.10;;;4.10;99.90;;;;;;5016350;28;20500;-61
2021/11/29 03:04:29;;;;;;;34.20;25.53;;;4.10;99.90;;;;;;5016252;28;20414;-61
2021/11/29 03:06:56;;;;;;;32.70;23.30;;;4.10;99.90;;;;;;5015397;28;20442;-59
2021/11/29 03:09:22;;;;;;;27.10;21.10;;;4.20;99.90;;;;;;5015479;28;20461;-61
2021/11/29 03:11:48;;;;;;;28.07;22.47;;;4.20;99.90;;;;;;4998488;28;20874;-61
2021/11/29 03:14:14;;;;;;;30.50;24.43;;;4.10;99.90;;;;;;5016121;28;20904;-60
2021/11/29 03:16:41;;;;;;;28.37;22.87;;;4.20;99.90;;;;;;5016338;28;20899;-60
2021/11/29 03:19:06;;;;;;;27.60;22.23;;;4.00;99.90;;;;;;4998277;28;20442;-62
2021/11/29 03:21:33;;;;;;;27.43;22.97;;;3.90;99.90;;;;;;5015692;28;20406;-61
2021/11/29 03:24:01;;;;;;;29.97;22.63;;;3.70;99.90;;;;;;5015150;28;20164;-61
2021/11/29 03:26:29;;;;;;;29.90;26.70;;;3.70;99.90;;;;;;5015863;28;20434;-61
2021/11/29 03:28:59;;;;;;;30.10;23.57;;;3.70;99.90;;;;;;5015721;28;20517;-62
2021/11/29 03:31:29;;;;;;;26.70;21.67;;;3.70;99.90;;;;;;5016355;28;20391;-61
2021/11/29 03:33:57;;;;;;;25.70;22.43;;;4.00;99.90;;;;;;5016246;28;20403;-60
2021/11/29 03:36:24;;;;;;;28.10;21.97;;;3.90;99.90;;;;;;5015803;28;20514;-61
2021/11/29 03:38:50;;;;;;;32.80;21.83;;;3.90;99.90;;;;;;5014832;28;20948;-61
2021/11/29 03:41:15;;;;;;;27.73;23.40;;;3.70;99.90;;;;;;5015458;28;20486;-60
2021/11/29 03:43:41;;;;;;;26.70;21.03;;;3.70;99.90;;;;;;5015491;28;20172;-61
2021/11/29 03:46:07;;;;;;;28.93;22.80;;;3.80;99.90;;;;;;5015427;28;20581;-61
2021/11/29 03:48:34;;;;;;;29.83;22.50;;;3.70;99.90;;;;;;5015406;28;20172;-61
2021/11/29 03:50:59;;;;;;;28.63;22.53;;;3.70;99.90;;;;;;5015337;28;20418;-61
2021/11/29 03:53:25;;;;;;;26.83;22.70;;;3.80;99.90;;;;;;5015380;28;20407;-62
2021/11/29 03:55:51;;;;;;;32.60;24.43;;;3.70;99.90;;;;;;5014877;28;20210;-62
2021/11/29 03:58:17;;;;;;;30.40;25.37;;;3.60;99.90;;;;;;5015092;28;20251;-60
2021/11/29 04:00:43;;;;;;;29.07;22.60;;;3.70;99.90;;;;;;5015027;28;20895;-62
2021/11/29 04:03:08;;;;;;;24.67;20.13;;;3.70;99.90;;;;;;4997517;28;20194;-62
2021/11/29 04:05:34;;;;;;;23.17;18.93;;;3.80;99.90;;;;;;5015707;28;20548;-62
2021/11/29 04:08:00;;;;;;;28.40;22.10;;;3.90;99.90;;;;;;5015027;28;20172;-63
2021/11/29 04:10:26;;;;;;;27.10;19.70;;;3.80;99.90;;;;;;5014293;28;20279;-61
2021/11/29 04:12:51;;;;;;;27.50;21.47;;;3.80;99.90;;;;;;5014790;28;20199;-61
2021/11/29 04:15:17;;;;;;;25.73;22.00;;;3.80;99.90;;;;;;5014862;28;20443;-61
2021/11/29 04:17:42;;;;;;;27.50;22.30;;;3.90;99.90;;;;;;5014196;28;20168;-61
2021/11/29 04:20:10;;;;;;;29.40;23.20;;;4.00;99.90;;;;;;5014455;28;20271;-61
2021/11/29 04:22:37;;;;;;;29.40;22.63;;;4.10;99.90;;;;;;5014773;28;20191;-62
2021/11/29 04:25:04;;;;;;;22.47;18.90;;;4.00;99.90;;;;;;5014457;28;20412;-61
2021/11/29 04:27:31;;;;;;;25.53;21.40;;;3.90;99.90;;;;;;5014323;28;20411;-61
2021/11/29 04:30:03;;;;;;;23.03;18.70;;;4.00;99.90;;;;;;4996926;28;20438;-61
2021/11/29 04:32:28;;;;;;;28.40;22.03;;;3.80;99.90;;;;;;5014671;28;20748;-62
2021/11/29 04:34:55;;;;;;;29.73;23.13;;;3.80;99.90;;;;;;4996713;28;20422;-62
2021/11/29 04:37:20;;;;;;;33.00;23.73;;;3.70;99.90;;;;;;5014568;28;20527;-63
2021/11/29 04:39:46;;;;;;;28.00;21.50;;;3.70;99.90;;;;;;5010783;28;20484;-61
2021/11/29 04:42:12;;;;;;;27.20;21.60;;;3.80;99.90;;;;;;5014254;28;20201;-59
2021/11/29 04:44:37;;;;;;;28.80;21.53;;;3.90;99.90;;;;;;5014528;28;20172;-61
2021/11/29 04:47:03;;;;;;;29.30;22.00;;;3.90;99.90;;;;;;4996557;28;20172;-60
2021/11/29 04:49:29;;;;;;;31.27;23.43;;;3.70;99.90;;;;;;5014468;28;20184;-61
2021/11/29 04:51:54;;;;;;;27.77;22.47;;;3.70;99.90;;;;;;5013973;28;20203;-62
2021/11/29 04:54:20;;;;;;;29.80;21.40;;;3.90;99.90;;;;;;5013829;28;20176;-59
2021/11/29 04:56:46;;;;;;;29.50;22.20;;;4.00;99.90;;;;;;4995512;28;20172;-62
2021/11/29 04:59:12;;;;;;;33.10;23.00;;;3.80;99.90;;;;;;4996457;28;20199;-60
2021/11/29 05:01:38;;;;;;;31.93;22.13;;;3.80;99.90;;;;;;4995806;28;20446;-59
2021/11/29 05:04:04;;;;;;;25.30;20.00;;;3.70;99.90;;;;;;5003718;28;20184;-62
2021/11/29 05:06:37;;;;;;;29.30;19.40;;;3.50;99.90;;;;;;5014725;28;20918;-62
2021/11/29 05:09:05;;;;;;;26.37;18.00;;;3.70;99.90;;;;;;5013507;28;20203;-62
2021/11/29 05:11:31;;;;;;;26.20;20.73;;;3.70;99.90;;;;;;5013404;28;20411;-63
2021/11/29 05:13:56;;;;;;;30.27;21.27;;;3.70;99.90;;;;;;5013831;28;20403;-60
2021/11/29 05:16:22;;;;;;;23.37;17.73;;;3.80;99.90;;;;;;5013682;28;20164;-62
2021/11/29 05:18:47;;;;;;;26.73;20.87;;;3.80;99.90;;;;;;5013724;28;20271;-62
2021/11/29 05:21:13;;;;;;;28.90;20.70;;;3.80;99.90;;;;;;5013919;28;20628;-62
2021/11/29 05:23:39;;;;;;;24.57;19.13;;;3.90;99.90;;;;;;5013551;28;20215;-61
2021/11/29 05:26:04;;;;;;;28.70;20.40;;;3.80;99.90;;;;;;5013294;28;20179;-62
2021/11/29 05:28:30;;;;;;;27.27;21.60;;;3.80;99.90;;;;;;4995928;28;20278;-61
2021/11/29 05:30:56;;;;;;;27.97;20.50;;;3.80;99.90;;;;;;5013222;28;20226;-62
2021/11/29 05:33:22;;;;;;;26.50;18.90;;;3.80;99.90;;;;;;5013927;28;20406;-62
2021/11/29 05:35:47;;;;;;;29.40;22.13;;;3.80;99.90;;;;;;4995042;28;20172;-61
2021/11/29 05:38:13;;;;;;;29.70;20.97;;;3.80;99.90;;;;;;5013610;28;20904;-61
2021/11/29 05:40:38;;;;;;;22.90;18.50;;;3.70;99.90;;;;;;5013240;28;20183;-61
2021/11/29 05:43:04;;;;;;;25.13;18.90;;;3.50;99.90;;;;;;5013535;28;20204;-61
2021/11/29 05:45:30;;;;;;;23.23;18.17;;;3.40;99.90;;;;;;5014031;28;20279;-63
2021/11/29 05:47:56;;;;;;;27.10;18.20;;;3.50;99.90;;;;;;5013523;28;20168;-62
2021/11/29 05:50:21;;;;;;;24.10;18.87;;;3.50;99.90;;;;;;5013394;28;20430;-62
2021/11/29 05:52:47;;;;;;;26.97;19.73;;;3.40;99.90;;;;;;5013240;28;20172;-62
2021/11/29 05:55:14;;;;;;;29.47;20.93;;;3.50;99.90;;;;;;5013033;28;20257;-63
2021/11/29 05:57:41;;;;;;;25.00;20.00;;;3.60;99.90;;;;;;5013313;28;20164;-61
2021/11/29 06:00:09;;;;;;;27.97;19.63;;;3.60;99.90;;;;;;5012986;28;20431;-60
2021/11/29 06:02:35;;;;;;;27.70;21.60;;;3.50;99.90;;;;;;5013211;28;20819;-61
2021/11/29 06:05:01;;;;;;;24.73;18.60;;;3.60;99.90;;;;;;5013462;28;20414;-60
2021/11/29 06:07:26;;;;;;;25.03;19.70;;;3.60;99.90;;;;;;5013334;28;20180;-61
2021/11/29 06:09:52;;;;;;;25.30;19.80;;;3.60;99.90;;;;;;5012700;28;20594;-60
2021/11/29 06:12:17;;;;;;;25.53;20.10;;;3.60;99.90;;;;;;5013028;28;20172;-63
2021/11/29 06:14:43;;;;;;;24.30;19.77;;;3.60;99.90;;;;;;5013170;28;20172;-63
2021/11/29 06:17:09;;;;;;;34.00;21.17;;;3.70;99.90;;;;;;5013015;28;20203;-62
2021/11/29 06:19:34;;;;;;;26.07;17.40;;;3.80;99.90;;;;;;4995560;28;20287;-65
2021/11/29 06:22:00;;;;;;;22.87;18.20;;;3.80;99.90;;;;;;5011861;28;20199;-62
2021/11/29 06:24:25;;;;;;;24.90;17.80;;;3.60;99.90;;;;;;5013385;28;20176;-60
2021/11/29 06:26:51;;;;;;;26.83;17.73;;;3.50;99.90;;;;;;4995656;28;20207;-60
2021/11/29 06:29:17;;;;;;;22.53;16.57;;;3.40;99.90;;;;;;5012938;28;20199;-60
2021/11/29 06:31:42;;;;;;;19.37;14.63;;;3.40;99.90;;;;;;5013302;28;20250;-60
2021/11/29 06:34:08;;;;;;;25.10;18.07;;;3.50;99.90;;;;;;5013285;28;20168;-62
2021/11/29 06:36:34;;;;;;;22.13;15.97;;;3.50;99.90;;;;;;5012208;28;20190;-62
2021/11/29 06:39:00;;;;;;;24.17;17.30;;;3.50;99.90;;;;;;5013364;28;20195;-61
2021/11/29 06:41:27;;;;;;;22.50;16.70;;;3.50;99.90;;;;;;5014362;28;20168;-59
2021/11/29 06:43:53;;;;;;;22.63;16.20;;;3.50;99.90;;;;;;5017132;28;20491;-60
2021/11/29 06:46:19;;;;;;;23.77;17.30;;;3.50;99.90;;;;;;5013717;28;20410;-59
2021/11/29 06:48:45;;;;;;;24.30;17.13;;;3.50;99.90;;;;;;5016120;28;20938;-58
2021/11/29 06:51:11;;;;;;;23.50;16.83;;;3.50;99.90;;;;;;5016484;28;20164;-61
2021/11/29 06:53:37;;;;;;;19.43;16.93;;;3.50;99.90;;;;;;5017022;28;20407;-60
2021/11/29 06:56:04;;;;;;;25.30;15.97;;;3.50;99.90;;;;;;5017080;28;20464;-61
2021/11/29 06:58:30;;;;;;;24.30;18.10;;;3.60;99.90;;;;;;4997735;28;20426;-59
2021/11/29 07:00:55;;;;;;;21.20;15.73;;;3.60;99.90;;;;;;5016818;28;20429;-62
2021/11/29 07:03:21;;;;;;;22.10;16.50;;;3.50;99.90;;;;;;5016583;28;20266;-62
2021/11/29 07:05:50;;;;;;;20.30;15.20;;;3.40;99.90;;;;;;5016434;28;20402;-62
2021/11/29 07:08:16;;;;;;;22.13;15.23;;;3.40;99.90;;;;;;5016708;28;20307;-62
2021/11/29 07:10:42;;;;;;;19.40;15.20;;;3.50;99.90;;;;;;5016329;28;20434;-63
2021/11/29 07:13:10;;;;;;;18.83;14.43;;;3.60;99.90;;;;;;5016163;28;20407;-62
2021/11/29 07:15:36;;;;;;;19.90;14.10;;;3.60;99.90;;;;;;5016245;28;20195;-60
2021/11/29 07:18:03;;;;;;;19.97;13.43;;;3.50;99.90;;;;;;5016544;28;20418;-61
2021/11/29 07:20:29;;;;;;;18.03;14.07;;;3.50;99.90;;;;;;5015924;28;20426;-63
2021/11/29 07:22:54;;;;;;;17.57;12.53;;;3.60;99.90;;;;;;5016285;28;20458;-60
2021/11/29 07:25:20;;;;;;;18.07;12.93;;;3.50;99.90;;;;;;5016165;28;20168;-62
2021/11/29 07:27:46;;;;;;;17.97;12.73;;;3.50;99.90;;;;;;4998060;28;20180;-62
2021/11/29 07:30:14;;;;;;;16.63;12.13;;;3.40;99.90;;;;;;4998094;28;20211;-61
2021/11/29 07:32:40;;;;;;;15.37;13.10;;;3.50;99.90;;;;;;5015808;28;20200;-62
2021/11/29 07:35:07;;;;;;;18.37;13.20;;;3.40;99.90;;;;;;5015735;28;20414;-61
2021/11/29 07:37:33;;;;;;;17.40;11.67;;;3.40;99.90;;;;;;4998072;28;20419;-62
2021/11/29 07:40:01;;;;;;;14.73;11.97;;;3.50;99.90;;;;;;5015819;28;20500;-63
2021/11/29 07:42:27;;;;;;;17.83;12.87;;;3.70;99.90;;;;;;5015618;28;20455;-62
2021/11/29 07:44:54;;;;;;;15.40;11.20;;;3.60;99.90;;;;;;5015980;28;20406;-62
2021/11/29 07:47:22;;;;;;;14.33;10.73;;;3.60;99.90;;;;;;5015783;28;20187;-63
2021/11/29 07:49:48;;;;;;;15.00;11.57;;;3.50;99.90;;;;;;5016114;28;20517;-60
2021/11/29 07:52:14;;;;;;;13.70;10.37;;;3.40;99.90;;;;;;5014982;28;20493;-62
2021/11/29 07:54:42;;;;;;;15.03;10.70;;;3.40;99.90;;;;;;5013742;28;20284;-61
2021/11/29 07:57:08;;;;;;;17.17;10.43;;;3.40;99.90;;;;;;5008352;28;20415;-61
2021/11/29 07:59:34;;;;;;;14.67;10.80;;;3.30;99.90;;;;;;5015989;28;20485;-60
2021/11/29 08:01:59;;;;;;;16.97;10.40;;;3.30;99.90;;;;;;5016085;28;20521;-62
2021/11/29 08:04:26;;;;;;;15.63;10.43;;;3.40;99.90;;;;;;5016132;28;20419;-59
2021/11/29 08:06:52;;;;;;;15.20;10.00;;;3.40;99.90;;;;;;5015492;28;20176;-60
2021/11/29 08:09:17;;;;;;;12.80;9.83;;;3.40;99.90;;;;;;5015363;28;20524;-60
2021/11/29 08:11:43;;;;;;;33.97;10.33;;;3.40;99.90;;;;;;5001010;23;20487;-60
2021/11/29 08:14:08;;;;;;;14.90;8.43;;;3.50;99.90;;;;;;4986382;28;20177;-58
2021/11/29 08:16:34;;;;;;;12.83;9.10;;;3.50;99.90;;;;;;4977546;28;20161;-57
2021/11/29 08:19:00;;;;;;;11.50;9.17;;;3.60;99.90;;;;;;5005054;28;20176;-61
2021/11/29 08:21:25;;;;;;;12.97;7.97;;;3.60;99.90;;;;;;5016298;28;20187;-61
2021/11/29 08:23:51;;;;;;;12.40;9.00;;;3.60;99.90;;;;;;5016130;28;20203;-59
2021/11/29 08:26:17;;;;;;;12.73;9.50;;;3.70;99.90;;;;;;5016325;28;20641;-61
2021/11/29 08:28:42;;;;;;;11.90;9.00;;;3.60;99.90;;;;;;5016326;28;20199;-62
2021/11/29 08:31:08;;;;;;;10.70;8.77;;;3.70;99.90;;;;;;5016684;28;20556;-61
2021/11/29 08:33:34;;;;;;;9.70;8.80;;;3.70;99.90;;;;;;5016066;28;20173;-61
2021/11/29 08:35:59;;;;;;;10.67;8.63;;;3.70;99.90;;;;;;5015724;28;20168;-62
2021/11/29 08:38:25;;;;;;;12.10;10.10;;;3.80;99.90;;;;;;5018906;28;20214;-61
2021/11/29 08:40:51;;;;;;;12.70;7.40;;;3.80;99.90;;;;;;5017927;28;20195;-57
2021/11/29 08:43:18;;;;;;;11.27;8.53;;;3.90;99.90;;;;;;5002101;28;20196;-60
2021/11/29 08:45:49;;;;;;;13.10;9.73;;;3.90;99.90;;;;;;5018756;28;20407;-60
2021/11/29 08:48:16;;;;;;;11.20;9.27;;;3.80;99.90;;;;;;5018024;28;20395;-60
2021/11/29 08:50:44;;;;;;;9.80;7.80;;;3.90;99.90;;;;;;5017636;28;20427;-62
2021/11/29 08:53:13;;;;;;;12.10;8.40;;;3.90;99.90;;;;;;5018458;28;20426;-62
2021/11/29 08:55:39;;;;;;;10.00;8.00;;;4.00;99.90;;;;;;4997145;28;20412;-61
2021/11/29 08:58:06;;;;;;;10.93;7.87;;;4.00;99.90;;;;;;4996831;28;20466;-61
2021/11/29 09:00:33;;;;;;;11.53;8.67;;;4.00;99.90;;;;;;4996109;28;20275;-61
2021/11/29 09:03:02;;;;;;;11.77;9.10;;;4.00;99.90;;;;;;4995474;28;20439;-62
2021/11/29 09:05:28;;;;;;;10.50;9.07;;;3.90;99.90;;;;;;4994732;28;20415;-62
2021/11/29 09:07:54;;;;;;;8.97;7.90;;;3.90;99.90;;;;;;5004876;28;20423;-56
2021/11/29 09:10:21;;;;;;;17.37;9.00;;;3.90;99.90;;;;;;5014512;28;20255;-62
2021/11/29 09:12:47;;;;;;;9.20;7.70;;;3.90;99.90;;;;;;5011481;28;20230;-59
2021/11/29 09:15:17;;;;;;;12.13;7.80;;;3.80;99.90;;;;;;4994084;28;20413;-62
2021/11/29 09:17:43;;;;;;;11.60;9.20;;;3.70;99.90;;;;;;4995860;28;20191;-60
2021/11/29 09:20:11;;;;;;;10.80;7.23;;;3.70;99.90;;;;;;4999598;28;20418;-63
2021/11/29 09:22:38;;;;;;;11.90;8.40;;;3.70;99.90;;;;;;5015600;28;20881;-63
2021/11/29 09:25:05;;;;;;;11.27;8.17;;;3.80;99.90;;;;;;5014506;28;20747;-62
2021/11/29 09:27:31;;;;;;;10.60;8.30;;;3.80;99.90;;;;;;5014908;28;20403;-64
2021/11/29 09:29:57;;;;;;;11.23;8.00;;;3.90;99.90;;;;;;5014891;28;20414;-64
2021/11/29 09:32:24;;;;;;;17.03;9.07;;;3.80;99.90;;;;;;5014481;28;20509;-64
2021/11/29 09:34:50;;;;;;;9.37;7.47;;;3.90;99.90;;;;;;5014884;28;20534;-64
2021/11/29 09:37:18;;;;;;;13.33;8.90;;;3.80;99.90;;;;;;5014889;28;20410;-64
2021/11/29 09:39:44;;;;;;;11.40;7.40;;;3.80;99.90;;;;;;5014834;28;20247;-62
2021/11/29 09:42:10;;;;;;;10.53;7.47;;;3.80;99.90;;;;;;5014502;28;20955;-64
2021/11/29 09:44:36;;;;;;;8.53;6.90;;;3.80;99.90;;;;;;5015251;28;20562;-62
2021/11/29 09:47:02;;;;;;;8.37;6.70;;;3.80;99.90;;;;;;5014579;28;20171;-62
2021/11/29 09:49:40;;;;;;;8.40;5.73;;;4.10;99.90;;;;;;5014760;28;20175;-64
2021/11/29 09:52:05;;;;;;;8.23;5.77;;;4.30;99.90;;;;;;5014645;28;20207;-63
2021/11/29 09:54:31;;;;;;;10.40;5.80;;;4.60;99.90;;;;;;5014470;28;20406;-64
2021/11/29 09:56:57;;;;;;;7.43;5.33;;;4.80;99.90;;;;;;5014523;28;20198;-64
2021/11/29 09:59:24;;;;;;;8.60;5.57;;;5.00;99.90;;;;;;5014739;28;20183;-62
2021/11/29 10:01:51;;;;;;;6.50;5.33;;;5.10;99.90;;;;;;5014463;28;20277;-64
2021/11/29 10:04:18;;;;;;;8.40;5.60;;;5.00;99.90;;;;;;5015406;28;20426;-63
2021/11/29 10:06:46;;;;;;;9.30;5.00;;;5.10;99.90;;;;;;4997339;28;20454;-64
2021/11/29 10:09:33;;;;;;;7.27;5.03;;;5.10;99.90;;;;;;5014856;28;20408;-61
2021/11/29 10:12:18;;;;;;;5.63;4.73;;;5.10;99.90;;;;;;5014499;28;20557;-63
2021/11/29 10:14:44;;;;;;;5.23;4.23;;;5.30;99.90;;;;;;5014836;28;20417;-65
2021/11/29 10:17:10;;;;;;;4.97;4.47;;;5.30;99.90;;;;;;5016793;28;20782;-62
2021/11/29 10:19:38;;;;;;;6.03;4.10;;;5.40;99.90;;;;;;5017607;28;20184;-64
2021/11/29 10:22:18;;;;;;;5.33;4.17;;;5.20;99.90;;;;;;5017816;28;20224;-63
2021/11/29 10:24:45;;;;;;;6.63;4.93;;;5.00;99.90;;;;;;5018059;28;20766;-62
2021/11/29 10:27:12;;;;;;;9.03;4.77;;;5.00;99.90;;;;;;5000603;28;20411;-63
2021/11/29 10:29:37;;;;;;;5.20;4.43;;;4.90;99.90;;;;;;5017998;28;20497;-64
2021/11/29 10:32:04;;;;;;;8.10;4.93;;;5.10;99.90;;;;;;5017587;28;20463;-62
2021/11/29 10:34:32;;;;;;;9.00;5.37;;;5.40;99.90;;;;;;5018321;28;20180;-63
2021/11/29 10:37:09;;;;;;;7.93;4.67;;;5.30;99.90;;;;;;4999307;28;20429;-62
2021/11/29 10:39:37;;;;;;;5.97;4.30;;;5.50;99.90;;;;;;5020834;28;20387;-64
2021/11/29 10:42:06;;;;;;;5.23;4.57;;;5.40;99.90;;;;;;5018687;28;20542;-62
2021/11/29 10:44:37;;;;;;;5.60;4.27;;;5.20;99.90;;;;;;5020662;28;20798;-64
2021/11/29 10:47:07;;;;;;;8.00;4.87;;;5.10;99.90;;;;;;5019483;28;20485;-60
2021/11/29 10:49:39;;;;;;;5.80;4.60;;;5.20;99.90;;;;;;5019296;28;20407;-61
2021/11/29 10:52:07;;;;;;;6.10;4.70;;;5.20;99.90;;;;;;5017751;28;20469;-62
2021/11/29 10:54:35;;;;;;;9.63;5.13;;;5.10;99.90;;;;;;5017325;28;20986;-63
2021/11/29 10:57:02;;;;;;;5.47;4.47;;;4.90;99.90;;;;;;5015942;28;20457;-62
2021/11/29 10:59:31;;;;;;;7.33;4.50;;;5.00;99.90;;;;;;5017443;28;20413;-61
2021/11/29 11:02:03;;;;;;;6.23;4.03;;;5.70;99.90;;;;;;4992592;28;20960;-64
2021/11/29 11:04:31;;;;;;;5.50;4.27;;;6.60;99.90;;;;;;4981010;28;20430;-61
2021/11/29 11:07:00;;;;;;;7.57;4.70;;;7.20;99.90;;;;;;4988977;28;20418;-63
2021/11/29 11:09:30;;;;;;;7.77;4.20;;;6.90;99.90;;;;;;4998003;28;20414;-62
2021/11/29 11:11:58;;;;;;;6.80;5.20;;;6.60;99.90;;;;;;4997433;28;20473;-61
2021/11/29 11:14:33;;;;;;;10.07;5.43;;;6.20;99.90;;;;;;4997687;28;20412;-60
2021/11/29 11:17:06;;;;;;;7.37;4.90;;;5.70;99.90;;;;;;4997929;28;20392;-60
2021/11/29 11:19:36;;;;;;;7.47;4.73;;;5.40;99.90;;;;;;4997246;28;20407;-62
2021/11/29 11:22:17;;;;;;;8.67;5.97;;;5.30;99.90;;;;;;4999827;28;20450;-61
2021/11/29 11:24:50;;;;;;;9.63;5.40;;;5.40;99.90;;;;;;5016998;28;20386;-60
2021/11/29 11:27:16;;;;;;;11.57;6.07;;;5.30;99.90;;;;;;5016414;28;20869;-57
2021/11/29 11:29:43;;;;;;;8.47;5.70;;;5.00;99.90;;;;;;5017230;28;20571;-59
2021/11/29 11:32:17;;;;;;;7.33;5.40;;;4.80;99.90;;;;;;5016650;28;20482;-60
2021/11/29 11:34:49;;;;;;;5.93;5.03;;;4.80;99.90;;;;;;5016713;28;20394;-61
2021/11/29 11:37:17;;;;;;;8.63;5.20;;;4.90;99.90;;;;;;5017460;28;20395;-59
2021/11/29 11:39:44;;;;;;;6.40;5.43;;;5.00;99.90;;;;;;5017223;28;20418;-60
2021/11/29 11:42:10;;;;;;;7.20;5.67;;;5.20;99.90;;;;;;5016325;28;20460;-62
2021/11/29 11:44:38;;;;;;;7.63;5.57;;;5.30;99.90;;;;;;5016584;28;20403;-59
2021/11/29 11:47:06;;;;;;;6.03;5.30;;;5.40;99.90;;;;;;5016602;28;20446;-60
2021/11/29 11:49:35;;;;;;;9.50;5.70;;;5.30;99.90;;;;;;5016475;28;20403;-58
2021/11/29 11:52:01;;;;;;;5.60;4.80;;;5.20;99.90;;;;;;5016001;28;20907;-61
2021/11/29 11:54:27;;;;;;;6.20;5.17;;;5.10;99.90;;;;;;5016392;28;20410;-60
2021/11/29 11:56:53;;;;;;;7.80;5.50;;;5.20;99.90;;;;;;5016606;28;20773;-61
2021/11/29 11:59:26;;;;;;;7.50;4.73;;;5.40;99.90;;;;;;5016261;28;20411;-63
2021/11/29 12:01:56;;;;;;;7.93;4.80;;;5.20;99.90;;;;;;5018802;28;20195;-59
2021/11/29 12:04:22;;;;;;;7.73;5.47;;;5.00;99.90;;;;;;5017837;28;20438;-62
2021/11/29 12:06:49;;;;;;;6.60;5.10;;;5.10;99.90;;;;;;5017843;28;20807;-61
2021/11/29 12:09:15;;;;;;;8.67;5.27;;;5.40;99.90;;;;;;5018573;28;20407;-62
2021/11/29 12:11:41;;;;;;;5.50;4.47;;;5.50;99.90;;;;;;5019117;28;20490;-63
2021/11/29 12:14:17;;;;;;;5.33;4.77;;;5.50;99.90;;;;;;5020780;28;20411;-61
2021/11/29 12:16:50;;;;;;;8.27;4.20;;;5.70;99.90;;;;;;5017398;28;20628;-61
2021/11/29 12:19:24;;;;;;;7.10;4.90;;;5.70;99.90;;;;;;5020102;28;20406;-61
2021/11/29 12:21:52;;;;;;;6.30;4.10;;;5.50;99.90;;;;;;5016328;28;20442;-63
2021/11/29 12:24:21;;;;;;;6.60;3.90;;;5.50;99.90;;;;;;5019025;28;20403;-62
2021/11/29 12:26:47;;;;;;;7.37;3.93;;;5.50;99.90;;;;;;5018687;28;20771;-63
2021/11/29 12:29:22;;;;;;;5.20;4.20;;;5.30;99.90;;;;;;5018581;28;20414;-63
2021/11/29 12:32:01;;;;;;;6.90;4.60;;;5.30;99.90;;;;;;5018579;28;20423;-62
2021/11/29 12:34:51;;;;;;;10.03;5.20;;;5.30;99.90;;;;;;5018918;28;20395;-62
2021/11/29 12:37:39;;;;;;;11.07;5.07;;;5.50;99.90;;;;;;5017978;28;20434;-61
2021/11/29 12:40:08;;;;;;;8.47;5.57;;;5.60;99.90;;;;;;5017685;28;20759;-61
2021/11/29 12:42:34;;;;;;;7.80;5.50;;;5.70;99.90;;;;;;5018971;28;20450;-62